Time;durP1;ratioP1;P1;durP2;ratioP2;P2;SDS_P1;SDS_P2;PMS_P1;PMS_P2;Temp;Humidity;BMP_temperature;BMP_pressure;BME280_temperature;BME280_humidity;BME280_pressure;Samples;Min_cycle;Max_cycle;Signal;HPM_P1;HPM_P2
2022/09/13 00:00:19;;;;;;;5.72;3.47;;;16.00;20.40;;;;;;5112066;27;20196;-71
2022/09/13 00:02:46;;;;;;;7.25;4.15;;;15.80;1.00;;;;;;5114170;27;20215;-72
2022/09/13 00:05:13;;;;;;;3.83;3.30;;;15.70;1.00;;;;;;5105241;27;20207;-71
2022/09/13 00:07:40;;;;;;;5.05;3.42;;;15.60;1.00;;;;;;5114698;27;20204;-71
2022/09/13 00:10:08;;;;;;;7.20;4.10;;;15.50;1.00;;;;;;5111339;27;20881;-71
2022/09/13 00:12:35;;;;;;;5.47;3.85;;;15.40;1.00;;;;;;5132294;27;20674;-71
2022/09/13 00:15:02;;;;;;;4.93;3.45;;;15.30;99.90;;;;;;5109558;27;20226;-71
2022/09/13 00:17:29;;;;;;;8.02;4.05;;;15.40;1.00;;;;;;5105204;28;20193;-71
2022/09/13 00:19:56;;;;;;;7.05;4.35;;;15.40;7.30;;;;;;5113729;28;20219;-71
2022/09/13 00:22:22;;;;;;;4.45;3.65;;;15.40;1.00;;;;;;5112795;28;20196;-71
2022/09/13 00:24:49;;;;;;;5.60;3.83;;;15.30;63.10;;;;;;5109359;28;20211;-71
2022/09/13 00:27:17;;;;;;;6.18;4.05;;;15.40;1.00;;;;;;5111336;28;20655;-71
2022/09/13 00:29:44;;;;;;;5.10;4.05;;;15.50;1.00;;;;;;5108207;28;20413;-71
2022/09/13 00:32:12;;;;;;;5.50;4.10;;;15.40;1.00;;;;;;5110560;28;20323;-71
2022/09/13 00:34:39;;;;;;;5.13;3.92;;;15.40;1.00;;;;;;5108520;28;20655;-71
2022/09/13 00:37:05;;;;;;;6.25;3.97;;;15.50;1.00;;;;;;5102984;28;20201;-71
2022/09/13 00:39:32;;;;;;;5.68;4.00;;;15.80;1.00;;;;;;5113164;28;20201;-71
2022/09/13 00:41:59;;;;;;;6.40;4.50;;;16.00;82.80;;;;;;5110472;27;20222;-71
2022/09/13 00:44:56;;;;;;;4.53;3.80;;;16.20;1.00;;;;;;5106891;28;20204;-71
2022/09/13 00:47:28;;;;;;;5.85;4.00;;;16.40;99.90;;;;;;5117374;27;20196;-71
2022/09/13 00:50:01;;;;;;;6.72;3.92;;;16.30;1.00;;;;;;5102162;28;20197;-71
2022/09/13 00:52:30;;;;;;;7.30;4.15;;;16.40;99.90;;;;;;5109430;28;20228;-71
2022/09/13 00:55:01;;;;;;;6.53;3.88;;;16.50;1.00;;;;;;5113178;27;20193;-71
2022/09/13 00:57:31;;;;;;;5.72;4.05;;;16.50;1.00;;;;;;5118427;27;20219;-71
2022/09/13 01:00:07;;;;;;;5.57;4.03;;;16.60;1.00;;;;;;5110753;27;20201;-71
2022/09/13 01:02:34;;;;;;;4.75;3.88;;;16.50;99.90;;;;;;5113682;27;20197;-71
2022/09/13 01:05:03;;;;;;;7.50;4.07;;;16.50;99.90;;;;;;5113643;28;20663;-71
2022/09/13 01:07:29;;;;;;;4.28;3.70;;;16.50;1.00;;;;;;5111916;28;20229;-71
2022/09/13 01:09:57;;;;;;;5.63;4.20;;;16.50;1.00;;;;;;5112596;28;20651;-71
2022/09/13 01:12:32;;;;;;;6.97;4.25;;;16.40;1.00;;;;;;5112315;28;20679;-71
2022/09/13 01:15:03;;;;;;;6.40;4.63;;;16.50;1.00;;;;;;5085244;28;20224;-71
2022/09/13 01:17:31;;;;;;;5.47;3.80;;;16.70;1.00;;;;;;5104533;28;20201;-71
2022/09/13 01:19:59;;;;;;;5.60;4.03;;;16.60;1.00;;;;;;5111723;28;20205;-71
2022/09/13 01:23:07;;;;;;;6.53;4.03;;;16.90;99.90;;;;;;5113608;28;20197;-71
2022/09/13 01:26:11;;;;;;;6.35;4.30;;;17.10;1.00;;;;;;5095313;28;20667;-71
2022/09/13 01:29:14;;;;;;;6.15;4.45;;;16.90;99.90;;;;;;5115582;28;20224;-72
2022/09/13 01:31:48;;;;;;;6.03;4.03;;;17.20;1.00;;;;;;5103611;28;20623;-71
2022/09/13 01:34:28;;;;;;;7.43;4.38;;;17.30;99.90;;;;;;5112438;27;20564;-72
2022/09/13 01:37:30;;;;;;;5.25;3.83;;;17.30;99.90;;;;;;5113360;27;20205;-72
2022/09/13 01:40:05;;;;;;;6.45;3.85;;;17.50;1.00;;;;;;5058228;28;20287;-71
2022/09/13 01:42:46;;;;;;;4.60;3.80;;;17.60;1.00;;;;;;5114129;27;20613;-71
2022/09/13 01:45:23;;;;;;;6.93;3.92;;;17.40;1.00;;;;;;5104004;27;20205;-71
2022/09/13 01:47:57;;;;;;;4.82;4.25;;;17.50;1.00;;;;;;5080804;28;20201;-71
2022/09/13 01:50:36;;;;;;;4.53;3.85;;;17.30;99.90;;;;;;5083238;28;20655;-71
2022/09/13 01:53:08;;;;;;;4.60;4.10;;;17.40;99.90;;;;;;5119675;27;20219;-71
2022/09/13 01:55:40;;;;;;;5.50;4.13;;;17.50;1.00;;;;;;5112835;27;20197;-71
2022/09/13 01:58:19;;;;;;;6.10;3.90;;;17.40;1.00;;;;;;5112062;28;20283;-71
2022/09/13 02:00:55;;;;;;;6.13;4.55;;;17.40;1.00;;;;;;5110740;27;20208;-71
2022/09/13 02:03:30;;;;;;;5.38;4.05;;;17.20;38.50;;;;;;5113161;28;20193;-71
2022/09/13 02:06:00;;;;;;;5.95;4.25;;;17.10;99.90;;;;;;5101037;27;20227;-71
2022/09/13 02:08:35;;;;;;;5.50;4.10;;;17.20;1.00;;;;;;5111777;28;20212;-71
2022/09/13 02:11:08;;;;;;;4.90;4.28;;;17.30;1.00;;;;;;5109652;27;20450;-71
2022/09/13 02:13:38;;;;;;;5.38;4.60;;;17.30;1.00;;;;;;5113307;27;20200;-71
2022/09/13 02:16:11;;;;;;;4.65;4.15;;;17.30;1.00;;;;;;5115141;27;20200;-71
2022/09/13 02:18:41;;;;;;;6.53;4.60;;;17.20;1.00;;;;;;5115435;27;20229;-70
2022/09/13 02:21:12;;;;;;;6.07;4.75;;;17.30;1.00;;;;;;5114875;27;20211;-71
2022/09/13 02:23:44;;;;;;;6.07;4.53;;;17.40;99.90;;;;;;5117979;27;20197;-71
2022/09/13 02:26:14;;;;;;;5.22;4.00;;;17.30;1.00;;;;;;5114240;27;20232;-71
2022/09/13 02:28:44;;;;;;;7.22;4.00;;;17.30;1.00;;;;;;5110006;28;20193;-71
2022/09/13 02:31:12;;;;;;;5.05;3.75;;;17.30;1.00;;;;;;5106890;28;20213;-71
2022/09/13 02:33:45;;;;;;;5.40;4.45;;;17.30;1.00;;;;;;5116041;27;20208;-71
2022/09/13 02:36:15;;;;;;;6.63;4.82;;;17.40;1.00;;;;;;5099857;28;20204;-70
2022/09/13 02:38:46;;;;;;;6.28;4.25;;;17.40;1.00;;;;;;5110418;28;20205;-70
2022/09/13 02:41:18;;;;;;;5.28;4.03;;;17.40;1.00;;;;;;5108828;27;20197;-71
2022/09/13 02:43:50;;;;;;;4.88;4.30;;;17.50;1.00;;;;;;5101281;28;20204;-71
2022/09/13 02:46:35;;;;;;;5.38;4.38;;;17.50;1.00;;;;;;5110789;27;20196;-71
2022/09/13 02:49:12;;;;;;;4.90;4.13;;;17.50;1.00;;;;;;5086902;27;20197;-71
2022/09/13 02:51:50;;;;;;;5.93;4.20;;;17.50;1.00;;;;;;5113831;27;20265;-70
2022/09/13 02:54:25;;;;;;;5.07;4.20;;;17.50;1.00;;;;;;5110385;27;20588;-70
2022/09/13 02:56:58;;;;;;;5.82;4.22;;;17.50;1.00;;;;;;5100506;28;20598;-70
2022/09/13 02:59:26;;;;;;;6.97;4.90;;;17.50;1.00;;;;;;5115248;27;20661;-70
2022/09/13 03:02:01;;;;;;;5.88;4.40;;;17.50;1.00;;;;;;5107151;28;20276;-70
2022/09/13 03:04:30;;;;;;;5.57;4.47;;;17.40;1.00;;;;;;5107557;28;20667;-71
2022/09/13 03:06:56;;;;;;;7.15;4.43;;;17.50;99.90;;;;;;5108250;27;20201;-71
2022/09/13 03:09:23;;;;;;;7.82;4.70;;;17.40;1.00;;;;;;5118580;27;20666;-70
2022/09/13 03:12:03;;;;;;;8.13;4.57;;;17.30;1.00;;;;;;5115135;27;20575;-70
2022/09/13 03:14:40;;;;;;;5.75;4.50;;;17.20;14.50;;;;;;5112137;27;20208;-70
2022/09/13 03:17:22;;;;;;;6.22;5.03;;;17.00;1.00;;;;;;5113176;27;20208;-70
2022/09/13 03:20:10;;;;;;;7.55;5.05;;;16.90;1.00;;;;;;5120135;27;20647;-70
2022/09/13 03:22:56;;;;;;;8.43;5.25;;;16.70;99.90;;;;;;5111614;27;20193;-70
2022/09/13 03:25:33;;;;;;;6.15;4.97;;;16.70;99.90;;;;;;5113032;27;20654;-70
2022/09/13 03:28:07;;;;;;;6.15;4.88;;;16.50;99.90;;;;;;5093982;28;20205;-70
2022/09/13 03:30:38;;;;;;;7.60;4.65;;;16.50;99.90;;;;;;5110999;28;20224;-70
2022/09/13 03:33:12;;;;;;;8.13;6.10;;;16.60;99.90;;;;;;5101486;28;20248;-70
2022/09/13 03:35:44;;;;;;;7.80;5.10;;;16.50;99.90;;;;;;5092872;28;20205;-70
2022/09/13 03:38:16;;;;;;;6.47;4.38;;;16.40;99.90;;;;;;5096796;28;20652;-70
2022/09/13 03:40:48;;;;;;;8.20;5.75;;;16.50;99.90;;;;;;5101323;28;20201;-71
2022/09/13 03:43:19;;;;;;;7.53;5.20;;;16.30;99.90;;;;;;5113269;28;20265;-70
2022/09/13 03:45:49;;;;;;;6.70;5.00;;;16.30;99.90;;;;;;5107650;28;20207;-70
2022/09/13 03:48:17;;;;;;;6.43;4.78;;;16.30;99.90;;;;;;5112649;28;20200;-71
2022/09/13 03:50:48;;;;;;;6.47;5.03;;;16.30;99.90;;;;;;5109167;28;20209;-71
2022/09/13 03:53:19;;;;;;;7.78;5.13;;;16.30;99.90;;;;;;5112730;28;20713;-71
2022/09/13 03:55:46;;;;;;;7.68;5.30;;;16.30;99.90;;;;;;5105096;28;20205;-71
2022/09/13 03:58:16;;;;;;;6.50;5.50;;;16.20;99.90;;;;;;5105408;28;20571;-71
2022/09/13 04:00:44;;;;;;;7.47;5.47;;;16.10;99.90;;;;;;5103530;28;20224;-71
2022/09/13 04:03:12;;;;;;;10.07;5.65;;;16.10;99.90;;;;;;5107620;28;20408;-71
2022/09/13 04:05:39;;;;;;;7.18;5.47;;;16.00;99.90;;;;;;5101676;28;20225;-71
2022/09/13 04:08:07;;;;;;;7.60;5.68;;;16.00;99.90;;;;;;5112845;28;20201;-70
2022/09/13 04:10:36;;;;;;;11.45;5.82;;;16.00;99.90;;;;;;5104797;28;20229;-71
2022/09/13 04:13:03;;;;;;;9.27;6.95;;;16.00;99.90;;;;;;5114024;27;20241;-71
2022/09/13 04:15:31;;;;;;;11.00;7.00;;;16.00;99.90;;;;;;5113666;28;20200;-71
2022/09/13 04:17:57;;;;;;;9.15;6.70;;;16.10;99.90;;;;;;5106313;28;20201;-71
2022/09/13 04:20:24;;;;;;;8.60;6.68;;;16.10;99.90;;;;;;5108834;28;20692;-71
2022/09/13 04:22:52;;;;;;;8.52;6.30;;;16.10;99.90;;;;;;5094324;28;20282;-71
2022/09/13 04:25:21;;;;;;;7.85;5.70;;;16.10;99.90;;;;;;5109352;28;20197;-71
2022/09/13 04:27:47;;;;;;;7.13;5.72;;;16.00;99.90;;;;;;5112552;28;20291;-71
2022/09/13 04:30:15;;;;;;;9.15;5.93;;;16.00;99.90;;;;;;5106845;28;20208;-71
2022/09/13 04:32:43;;;;;;;8.77;6.05;;;16.10;99.90;;;;;;5103350;28;20573;-71
2022/09/13 04:35:10;;;;;;;8.57;5.80;;;16.10;99.90;;;;;;5109794;28;20490;-71
2022/09/13 04:37:37;;;;;;;8.25;5.70;;;16.10;99.90;;;;;;5112163;28;20655;-71
2022/09/13 04:40:05;;;;;;;6.25;5.15;;;16.30;99.90;;;;;;5103411;28;20204;-71
2022/09/13 04:42:33;;;;;;;7.72;5.75;;;16.20;99.90;;;;;;5102397;28;20189;-71
2022/09/13 04:45:00;;;;;;;7.97;5.70;;;16.20;99.90;;;;;;5106876;28;20536;-71
2022/09/13 04:47:26;;;;;;;7.88;5.75;;;16.20;99.90;;;;;;5101939;28;20212;-71
2022/09/13 04:49:53;;;;;;;6.55;5.32;;;16.20;99.90;;;;;;5110977;28;20193;-71
2022/09/13 04:52:20;;;;;;;7.43;5.70;;;16.30;99.90;;;;;;5107091;28;20248;-71
2022/09/13 04:54:47;;;;;;;7.35;5.25;;;16.20;99.90;;;;;;5099373;28;20197;-70
2022/09/13 04:57:15;;;;;;;7.40;5.70;;;16.30;99.90;;;;;;5109171;28;20205;-70
2022/09/13 04:59:43;;;;;;;8.13;5.47;;;16.20;99.90;;;;;;5109617;28;20205;-70
2022/09/13 05:02:10;;;;;;;8.07;5.68;;;16.30;99.90;;;;;;5103525;28;20200;-70
2022/09/13 05:04:37;;;;;;;5.82;5.10;;;16.30;99.90;;;;;;5103917;28;20201;-70
2022/09/13 05:07:04;;;;;;;7.72;5.20;;;16.40;99.90;;;;;;5106935;28;20196;-70
2022/09/13 05:09:31;;;;;;;6.97;5.22;;;16.40;99.90;;;;;;5109868;28;20489;-70
2022/09/13 05:11:58;;;;;;;6.97;5.30;;;16.40;99.90;;;;;;5107555;28;20201;-70
2022/09/13 05:14:25;;;;;;;7.20;5.43;;;16.40;99.90;;;;;;5102572;28;20289;-70
2022/09/13 05:16:54;;;;;;;7.50;5.00;;;16.40;99.90;;;;;;5108197;28;20201;-70
2022/09/13 05:19:21;;;;;;;7.50;4.72;;;16.40;99.90;;;;;;5106891;28;20201;-70
2022/09/13 05:21:53;;;;;;;5.88;4.85;;;16.50;99.90;;;;;;5110553;28;20647;-70
2022/09/13 05:24:20;;;;;;;6.20;4.88;;;16.60;99.90;;;;;;5106275;28;20200;-70
2022/09/13 05:26:47;;;;;;;6.32;5.15;;;16.60;99.90;;;;;;5108313;28;20193;-70
2022/09/13 05:29:14;;;;;;;6.70;5.45;;;16.60;99.90;;;;;;5108334;28;20211;-70
2022/09/13 05:31:42;;;;;;;11.80;5.97;;;16.70;99.90;;;;;;5107687;28;20663;-70
2022/09/13 05:34:13;;;;;;;5.60;4.57;;;16.70;99.90;;;;;;5117432;27;20631;-70
2022/09/13 05:36:40;;;;;;;7.65;4.90;;;16.70;99.90;;;;;;5107652;27;20217;-70
2022/09/13 05:39:13;;;;;;;7.13;5.13;;;16.60;99.90;;;;;;5121250;27;20200;-70
2022/09/13 05:41:40;;;;;;;9.40;5.55;;;16.70;99.90;;;;;;5108155;27;20296;-70
2022/09/13 05:44:08;;;;;;;7.90;5.20;;;16.60;99.90;;;;;;5109038;27;20280;-70
2022/09/13 05:46:35;;;;;;;8.10;5.15;;;16.60;99.90;;;;;;5110279;27;20204;-70
2022/09/13 05:49:02;;;;;;;5.78;4.78;;;16.60;99.90;;;;;;5099115;27;20204;-70
2022/09/13 05:51:30;;;;;;;7.38;4.80;;;16.60;99.90;;;;;;5099203;28;20198;-70
2022/09/13 05:53:58;;;;;;;7.32;5.15;;;16.60;99.90;;;;;;5111742;28;20213;-70
2022/09/13 05:56:27;;;;;;;6.50;5.25;;;16.60;99.90;;;;;;5112419;28;20284;-69
2022/09/13 05:58:54;;;;;;;8.43;5.53;;;16.60;99.90;;;;;;5109165;28;20200;-69
2022/09/13 06:01:23;;;;;;;5.82;4.95;;;16.70;99.90;;;;;;5108583;28;20735;-69
2022/09/13 06:03:51;;;;;;;7.95;5.30;;;16.70;99.90;;;;;;5107469;28;20201;-70
2022/09/13 06:06:19;;;;;;;8.20;5.30;;;16.70;99.90;;;;;;5109307;28;20568;-69
2022/09/13 06:08:47;;;;;;;6.47;5.05;;;16.70;99.90;;;;;;5114679;28;20197;-69
2022/09/13 06:11:15;;;;;;;5.38;4.85;;;16.70;99.90;;;;;;5109607;28;20581;-69
2022/09/13 06:13:42;;;;;;;5.72;4.90;;;16.80;99.90;;;;;;5114989;28;20216;-69
2022/09/13 06:16:11;;;;;;;6.88;5.53;;;16.80;99.90;;;;;;5109304;28;20224;-69
2022/09/13 06:18:38;;;;;;;7.10;4.72;;;16.80;99.90;;;;;;5110944;27;20419;-69
2022/09/13 06:21:08;;;;;;;8.95;5.18;;;17.00;99.90;;;;;;5107906;28;20204;-69
2022/09/13 06:23:35;;;;;;;6.05;5.13;;;17.00;99.90;;;;;;5112768;28;20201;-69
2022/09/13 06:26:06;;;;;;;5.95;4.60;;;17.00;99.90;;;;;;5105709;28;20206;-69
2022/09/13 06:28:33;;;;;;;5.10;4.30;;;17.10;99.90;;;;;;5106652;28;20196;-69
2022/09/13 06:31:01;;;;;;;6.28;4.47;;;17.10;99.90;;;;;;5108276;28;20209;-69
2022/09/13 06:33:28;;;;;;;6.25;4.63;;;17.10;99.90;;;;;;5107487;28;20228;-69
2022/09/13 06:35:55;;;;;;;6.43;4.60;;;17.20;99.90;;;;;;5109865;28;20666;-69
2022/09/13 06:38:22;;;;;;;8.32;4.93;;;17.20;99.90;;;;;;5112111;28;20197;-69
2022/09/13 06:40:48;;;;;;;5.93;5.18;;;17.20;99.90;;;;;;5094769;28;20208;-69
2022/09/13 06:43:17;;;;;;;6.53;4.95;;;17.30;99.90;;;;;;5106869;28;20197;-69
2022/09/13 06:45:43;;;;;;;6.22;4.75;;;17.40;99.90;;;;;;5108104;28;20233;-69
2022/09/13 06:48:10;;;;;;;6.10;4.63;;;17.50;99.90;;;;;;5107336;28;20560;-69
2022/09/13 06:50:37;;;;;;;5.50;4.47;;;17.60;99.90;;;;;;5109643;28;20572;-69
2022/09/13 06:53:04;;;;;;;6.32;5.07;;;17.70;99.90;;;;;;5108852;28;20223;-69
2022/09/13 06:55:31;;;;;;;6.07;4.60;;;17.80;99.90;;;;;;5106871;28;20221;-69
2022/09/13 06:57:58;;;;;;;6.43;4.43;;;17.80;99.90;;;;;;5112651;28;20208;-69
2022/09/13 07:00:26;;;;;;;4.45;4.03;;;17.80;37.10;;;;;;5106210;28;20197;-69
2022/09/13 07:02:53;;;;;;;5.95;4.82;;;17.80;45.20;;;;;;5104548;28;20201;-70
2022/09/13 07:05:20;;;;;;;7.25;5.00;;;17.90;1.00;;;;;;5108291;28;20213;-69
2022/09/13 07:07:47;;;;;;;6.85;4.28;;;17.90;1.00;;;;;;5109996;28;20193;-69
2022/09/13 07:10:14;;;;;;;4.88;4.03;;;18.00;1.00;;;;;;5109877;28;20205;-69
2022/09/13 07:12:41;;;;;;;5.55;4.35;;;18.10;99.90;;;;;;5113039;28;20189;-69
2022/09/13 07:15:09;;;;;;;6.13;4.43;;;18.00;1.00;;;;;;5108446;28;20383;-69
2022/09/13 07:17:37;;;;;;;5.45;4.00;;;18.00;3.50;;;;;;5109019;28;20204;-69
2022/09/13 07:20:07;;;;;;;5.75;4.55;;;18.10;99.90;;;;;;5107227;28;20214;-69
2022/09/13 07:22:34;;;;;;;6.53;4.55;;;18.20;99.90;;;;;;5109956;28;20608;-69
2022/09/13 07:25:01;;;;;;;6.30;4.65;;;18.20;93.00;;;;;;5108607;28;20205;-69
2022/09/13 07:27:27;;;;;;;5.53;4.15;;;18.30;60.30;;;;;;5112909;28;20208;-69
2022/09/13 07:29:54;;;;;;;5.63;4.80;;;18.30;1.00;;;;;;5112146;27;20203;-69
2022/09/13 07:32:21;;;;;;;5.50;4.55;;;18.20;1.00;;;;;;5107350;28;20252;-69
2022/09/13 07:34:50;;;;;;;7.15;4.93;;;18.30;99.90;;;;;;5111866;28;20247;-69
2022/09/13 07:37:17;;;;;;;7.05;4.75;;;18.40;1.00;;;;;;5103974;28;20220;-69
2022/09/13 07:39:44;;;;;;;5.40;4.90;;;18.40;1.00;;;;;;5107921;28;20251;-69
2022/09/13 07:42:10;;;;;;;6.88;4.75;;;18.50;1.00;;;;;;5102453;28;20206;-69
2022/09/13 07:44:37;;;;;;;6.63;4.90;;;18.50;1.00;;;;;;5110982;28;20193;-69
2022/09/13 07:47:04;;;;;;;9.10;5.55;;;18.60;1.00;;;;;;5105564;28;20196;-69
2022/09/13 07:49:31;;;;;;;7.43;5.45;;;18.60;1.00;;;;;;5108871;28;20209;-69
2022/09/13 07:51:59;;;;;;;8.70;5.18;;;18.60;1.00;;;;;;5109394;28;20197;-69
2022/09/13 07:54:26;;;;;;;5.60;5.05;;;18.60;1.00;;;;;;5102184;28;20220;-69
2022/09/13 07:56:53;;;;;;;7.20;5.22;;;18.60;1.00;;;;;;5103639;28;20193;-69
2022/09/13 07:59:19;;;;;;;8.27;5.47;;;18.60;56.40;;;;;;5108494;28;20208;-69
2022/09/13 08:01:48;;;;;;;7.93;5.30;;;18.50;99.90;;;;;;5103848;28;20209;-69
2022/09/13 08:04:17;;;;;;;8.70;5.50;;;18.40;99.90;;;;;;5106021;28;20190;-70
2022/09/13 08:06:45;;;;;;;7.65;5.70;;;18.40;99.90;;;;;;5103748;28;20291;-69
2022/09/13 08:09:14;;;;;;;6.57;5.63;;;18.40;99.90;;;;;;5106635;28;20678;-69
2022/09/13 08:11:42;;;;;;;7.13;5.20;;;18.40;99.90;;;;;;5093447;28;20193;-70
2022/09/13 08:14:11;;;;;;;6.65;5.32;;;18.50;99.90;;;;;;5111665;28;20233;-69
2022/09/13 08:16:39;;;;;;;6.75;5.20;;;18.50;99.90;;;;;;5107602;28;20197;-69
2022/09/13 08:19:07;;;;;;;6.43;5.20;;;18.50;99.90;;;;;;5111398;28;20613;-69
2022/09/13 08:21:36;;;;;;;6.93;5.53;;;18.60;99.90;;;;;;5105006;28;20201;-69
2022/09/13 08:24:04;;;;;;;7.50;5.38;;;18.60;99.90;;;;;;5102885;28;20233;-70
2022/09/13 08:26:34;;;;;;;6.65;5.25;;;18.60;99.90;;;;;;5106591;28;20200;-71
2022/09/13 08:29:06;;;;;;;6.88;4.75;;;18.60;99.90;;;;;;5103685;28;20210;-71
2022/09/13 08:31:33;;;;;;;7.95;5.45;;;18.60;99.90;;;;;;5107636;28;20693;-71
2022/09/13 08:34:00;;;;;;;7.60;4.90;;;18.80;99.90;;;;;;5103092;28;20228;-71
2022/09/13 08:36:29;;;;;;;8.35;5.22;;;18.80;99.90;;;;;;5104609;28;20216;-71
2022/09/13 08:38:57;;;;;;;7.32;5.05;;;18.90;99.90;;;;;;5111239;28;20208;-71
2022/09/13 08:41:58;;;;;;;6.78;5.20;;;18.90;99.90;;;;;;5106475;28;20426;-71
2022/09/13 08:44:29;;;;;;;7.05;5.57;;;18.90;99.90;;;;;;5105346;28;20284;-71
2022/09/13 08:47:04;;;;;;;7.55;5.65;;;19.00;99.90;;;;;;5110827;28;20200;-71
2022/09/13 08:49:34;;;;;;;6.07;5.07;;;19.10;99.90;;;;;;5105835;28;20204;-71
2022/09/13 08:52:10;;;;;;;9.30;5.55;;;19.20;1.00;;;;;;5114606;28;20197;-71
2022/09/13 08:54:37;;;;;;;9.13;6.25;;;19.30;33.00;;;;;;5113901;28;20581;-71
2022/09/13 08:57:15;;;;;;;8.75;5.93;;;19.30;1.00;;;;;;5111034;28;20223;-71
2022/09/13 08:59:54;;;;;;;7.50;5.25;;;19.40;1.00;;;;;;5113176;28;20220;-72
2022/09/13 09:02:37;;;;;;;6.78;5.03;;;19.40;1.00;;;;;;5109262;28;20211;-71
2022/09/13 09:05:11;;;;;;;7.13;5.07;;;19.50;1.00;;;;;;5110101;28;20197;-71
2022/09/13 09:07:42;;;;;;;6.00;4.65;;;19.50;1.00;;;;;;5113510;27;20193;-71
2022/09/13 09:10:15;;;;;;;7.53;5.15;;;19.50;94.00;;;;;;5111570;27;20352;-72
2022/09/13 09:12:45;;;;;;;6.82;5.45;;;19.60;1.00;;;;;;5113471;27;20807;-72
2022/09/13 09:15:17;;;;;;;6.35;4.97;;;19.50;1.00;;;;;;5113888;28;21586;-71
2022/09/13 09:17:54;;;;;;;6.53;4.68;;;19.50;1.00;;;;;;5115425;27;20201;-71
2022/09/13 09:20:30;;;;;;;7.95;4.85;;;19.50;89.20;;;;;;5112721;28;20572;-71
2022/09/13 09:23:02;;;;;;;7.63;4.82;;;19.60;1.00;;;;;;5113633;28;20201;-72
2022/09/13 09:25:31;;;;;;;8.90;5.07;;;19.60;1.00;;;;;;5114335;28;20398;-72
2022/09/13 09:27:59;;;;;;;6.82;5.45;;;19.70;99.90;;;;;;5111390;28;20200;-72
2022/09/13 09:30:37;;;;;;;7.05;5.00;;;19.60;99.90;;;;;;5118750;27;20193;-71
2022/09/13 09:33:27;;;;;;;7.43;5.10;;;19.60;99.90;;;;;;5112611;27;20208;-71
2022/09/13 09:36:01;;;;;;;6.80;4.97;;;19.60;1.00;;;;;;5115602;27;20201;-72
2022/09/13 09:38:40;;;;;;;6.55;5.07;;;19.60;99.90;;;;;;5109698;28;20190;-72
2022/09/13 09:41:13;;;;;;;7.60;4.90;;;19.60;1.00;;;;;;5113028;28;20208;-71
2022/09/13 09:43:46;;;;;;;6.30;5.07;;;19.60;1.00;;;;;;5106481;28;20565;-71
2022/09/13 09:46:16;;;;;;;7.38;5.40;;;19.60;1.00;;;;;;5109219;27;20570;-72
2022/09/13 09:48:48;;;;;;;7.93;5.55;;;19.70;1.00;;;;;;5106871;27;20232;-72
2022/09/13 09:51:18;;;;;;;6.28;5.47;;;19.90;99.90;;;;;;5105910;27;20566;-71
2022/09/13 09:53:49;;;;;;;10.20;5.95;;;19.80;99.90;;;;;;5105611;27;20201;-72
2022/09/13 09:56:23;;;;;;;9.57;5.20;;;19.80;1.00;;;;;;5118330;27;20201;-72
2022/09/13 09:58:51;;;;;;;6.05;5.25;;;19.80;1.00;;;;;;5108548;28;20192;-72
2022/09/13 10:01:24;;;;;;;8.38;6.47;;;19.80;99.90;;;;;;5111873;28;20247;-72
2022/09/13 10:03:57;;;;;;;8.25;6.40;;;19.70;99.90;;;;;;5111960;28;20201;-71
2022/09/13 10:06:27;;;;;;;10.32;6.85;;;19.60;1.00;;;;;;5113927;28;20647;-71
2022/09/13 10:08:58;;;;;;;9.15;6.55;;;19.50;1.00;;;;;;5111127;27;20643;-72
2022/09/13 10:11:39;;;;;;;10.13;7.60;;;19.40;1.00;;;;;;5108529;27;20250;-72
2022/09/13 10:14:05;;;;;;;8.57;6.35;;;19.30;1.00;;;;;;5113491;27;20307;-72
2022/09/13 10:16:34;;;;;;;9.38;7.03;;;19.30;1.00;;;;;;5110302;28;20201;-72
2022/09/13 10:19:24;;;;;;;9.30;6.40;;;19.40;98.10;;;;;;5112475;28;20204;-71
2022/09/13 10:22:01;;;;;;;8.48;6.35;;;19.40;6.60;;;;;;5109666;27;20269;-71
2022/09/13 10:24:29;;;;;;;8.57;6.10;;;19.40;1.00;;;;;;5111162;27;20246;-72
2022/09/13 10:26:56;;;;;;;7.82;6.50;;;19.50;1.00;;;;;;5112177;27;20611;-72
2022/09/13 10:29:25;;;;;;;9.57;6.55;;;19.50;1.00;;;;;;5117849;27;20197;-72
2022/09/13 10:31:56;;;;;;;9.85;6.05;;;19.60;1.00;;;;;;5110847;28;20578;-72
2022/09/13 10:34:25;;;;;;;7.95;5.72;;;19.60;27.00;;;;;;5114726;27;20615;-72
2022/09/13 10:36:56;;;;;;;9.02;6.40;;;19.70;99.90;;;;;;5119488;27;20592;-72
2022/09/13 10:39:24;;;;;;;9.52;5.97;;;19.60;29.40;;;;;;5113172;28;20201;-72
2022/09/13 10:41:54;;;;;;;10.50;6.53;;;19.70;1.00;;;;;;5112146;27;20205;-72
2022/09/13 10:44:30;;;;;;;8.07;6.00;;;19.70;1.00;;;;;;5112364;28;20196;-72
2022/09/13 10:47:01;;;;;;;9.55;6.25;;;19.80;1.00;;;;;;5107630;28;20210;-72
2022/09/13 10:49:39;;;;;;;8.50;6.55;;;20.00;1.00;;;;;;5117058;27;20675;-72
2022/09/13 10:52:30;;;;;;;7.80;5.57;;;20.10;1.00;;;;;;5113885;27;20208;-72
2022/09/13 10:55:31;;;;;;;9.00;5.80;;;20.40;1.00;;;;;;5110610;28;20270;-72
2022/09/13 10:58:19;;;;;;;8.20;5.78;;;20.60;99.90;;;;;;5108029;27;20192;-71
2022/09/13 11:01:20;;;;;;;10.45;6.10;;;21.00;99.90;;;;;;5112830;27;20217;-72
2022/09/13 11:04:11;;;;;;;9.77;5.90;;;21.30;1.00;;;;;;5107343;28;20674;-72
2022/09/13 11:06:42;;;;;;;10.27;6.80;;;21.30;1.00;;;;;;5099460;28;20208;-72
2022/09/13 11:09:14;;;;;;;10.05;6.28;;;21.40;1.00;;;;;;5112578;28;20204;-72
2022/09/13 11:11:48;;;;;;;11.07;6.50;;;21.90;1.00;;;;;;5111546;28;20637;-72
2022/09/13 11:14:44;;;;;;;10.10;7.50;;;22.10;1.00;;;;;;5105126;28;20228;-72
2022/09/13 11:17:20;;;;;;;8.23;6.40;;;21.70;1.00;;;;;;5113734;27;20205;-72
2022/09/13 11:20:05;;;;;;;9.88;7.50;;;21.60;1.00;;;;;;5109285;28;20201;-71
2022/09/13 11:22:45;;;;;;;10.18;7.28;;;21.50;99.90;;;;;;5116694;27;20200;-72
2022/09/13 11:25:24;;;;;;;9.10;6.88;;;21.50;1.00;;;;;;5109855;27;20196;-72
2022/09/13 11:28:00;;;;;;;9.75;6.65;;;21.50;99.90;;;;;;5111481;27;20658;-72
2022/09/13 11:30:30;;;;;;;12.27;7.53;;;21.50;99.90;;;;;;5120771;27;20203;-72
2022/09/13 11:33:25;;;;;;;10.48;7.30;;;21.50;99.90;;;;;;5111262;28;20690;-72
2022/09/13 11:36:17;;;;;;;8.48;6.25;;;21.50;1.00;;;;;;5109939;27;20224;-72
2022/09/13 11:38:57;;;;;;;10.20;7.18;;;21.60;99.90;;;;;;5093610;28;20197;-72
2022/09/13 11:41:35;;;;;;;9.30;7.10;;;21.50;99.90;;;;;;5110308;27;20669;-72
2022/09/13 11:44:23;;;;;;;8.98;7.18;;;21.50;99.90;;;;;;5111877;28;20207;-72
2022/09/13 11:46:59;;;;;;;8.00;6.25;;;21.40;1.00;;;;;;5110868;28;20674;-72
2022/09/13 11:49:46;;;;;;;11.20;7.15;;;21.20;1.00;;;;;;5113750;27;20568;-72
2022/09/13 11:52:27;;;;;;;10.23;7.43;;;21.20;1.00;;;;;;5111301;27;20603;-72
2022/09/13 11:55:04;;;;;;;10.38;7.35;;;21.10;1.00;;;;;;5110773;27;20224;-72
2022/09/13 11:57:35;;;;;;;10.02;7.30;;;21.00;99.90;;;;;;5110334;27;20201;-72
2022/09/13 12:00:05;;;;;;;8.35;6.22;;;21.00;1.00;;;;;;5109518;28;20220;-72
2022/09/13 12:02:39;;;;;;;8.98;6.65;;;21.20;99.90;;;;;;5111218;28;20629;-72
2022/09/13 12:05:14;;;;;;;8.00;7.20;;;21.30;99.90;;;;;;5104106;27;20193;-72
2022/09/13 12:07:48;;;;;;;7.43;6.60;;;21.30;99.90;;;;;;5109562;27;20621;-72
2022/09/13 12:10:20;;;;;;;9.18;7.13;;;21.40;99.90;;;;;;5099473;28;20200;-72
2022/09/13 12:12:50;;;;;;;8.05;7.25;;;21.40;99.90;;;;;;5101727;27;20689;-71
2022/09/13 12:15:21;;;;;;;9.70;7.68;;;21.40;1.00;;;;;;5100409;28;20217;-71
2022/09/13 12:17:51;;;;;;;9.70;7.75;;;21.20;1.00;;;;;;5099361;28;20563;-71
2022/09/13 12:20:28;;;;;;;9.48;7.57;;;21.20;99.90;;;;;;5102521;28;20209;-71
2022/09/13 12:23:00;;;;;;;8.70;7.80;;;21.30;99.90;;;;;;5101590;28;20204;-71
2022/09/13 12:25:36;;;;;;;9.85;8.43;;;21.20;99.90;;;;;;5105279;28;20245;-71
2022/09/13 12:28:13;;;;;;;8.25;7.45;;;21.20;99.90;;;;;;5095997;28;20206;-72
2022/09/13 12:30:45;;;;;;;10.30;7.90;;;20.90;99.90;;;;;;5106009;28;20205;-71
2022/09/13 12:33:15;;;;;;;7.72;6.93;;;20.90;1.00;;;;;;5102993;28;20196;-72
2022/09/13 12:35:54;;;;;;;9.98;7.70;;;20.90;1.00;;;;;;5106456;27;20221;-71
2022/09/13 12:38:44;;;;;;;9.25;8.25;;;20.90;1.00;;;;;;5107260;27;20671;-71
2022/09/13 12:41:31;;;;;;;11.93;9.60;;;20.80;1.00;;;;;;5100713;28;20687;-71
2022/09/13 12:44:26;;;;;;;12.50;9.80;;;20.70;1.00;;;;;;5103595;28;20576;-71
2022/09/13 12:47:24;;;;;;;13.73;10.82;;;20.60;1.00;;;;;;5102703;28;20619;-71
2022/09/13 12:50:10;;;;;;;11.50;9.48;;;20.60;36.40;;;;;;5107655;28;20201;-71
2022/09/13 12:52:42;;;;;;;13.40;10.43;;;20.60;99.90;;;;;;5106804;28;20204;-71
2022/09/13 12:55:48;;;;;;;16.20;12.15;;;20.60;27.10;;;;;;5107833;28;20222;-71
2022/09/13 12:58:37;;;;;;;12.02;9.75;;;20.60;77.50;;;;;;5099678;28;20207;-72
2022/09/13 13:01:16;;;;;;;11.57;10.30;;;20.60;70.80;;;;;;5099789;28;20197;-72
2022/09/13 13:03:50;;;;;;;11.45;8.85;;;20.80;9.80;;;;;;5107812;28;20204;-72
2022/09/13 13:06:36;;;;;;;9.82;8.50;;;20.70;1.00;;;;;;5105766;28;20197;-71
2022/09/13 13:09:07;;;;;;;8.50;7.20;;;20.90;1.00;;;;;;5110119;28;20200;-72
2022/09/13 13:11:47;;;;;;;7.97;6.80;;;20.90;1.00;;;;;;5105075;28;20197;-72
2022/09/13 13:14:44;;;;;;;8.90;6.20;;;21.00;1.00;;;;;;5101504;28;20197;-72
2022/09/13 13:17:38;;;;;;;9.95;6.78;;;20.90;99.90;;;;;;5105119;28;20201;-72